sensor_id;sensor_type;location;lat;lon;timestamp;pressure;altitude;pressure_sealevel;temperature;humidity
55576;BME280;41437;45.478;9.116;2023-02-14T00:00:51;101746.25;;;3.44;100.00
55576;BME280;41437;45.478;9.116;2023-02-14T00:03:54;101753.72;;;3.42;100.00
55576;BME280;41437;45.478;9.116;2023-02-14T00:06:59;101751.16;;;3.41;100.00
55576;BME280;41437;45.478;9.116;2023-02-14T00:10:01;101749.13;;;3.51;100.00
55576;BME280;41437;45.478;9.116;2023-02-14T00:13:04;101751.69;;;3.61;100.00
55576;BME280;41437;45.478;9.116;2023-02-14T00:16:06;101746.09;;;3.70;100.00
55576;BME280;41437;45.478;9.116;2023-02-14T00:19:10;101736.19;;;3.69;99.58
55576;BME280;41437;45.478;9.116;2023-02-14T00:22:13;101741.81;;;3.68;98.02
55576;BME280;41437;45.478;9.116;2023-02-14T00:25:15;101742.16;;;3.48;99.41
55576;BME280;41437;45.478;9.116;2023-02-14T00:28:17;101743.13;;;3.39;100.00
55576;BME280;41437;45.478;9.116;2023-02-14T00:31:19;101740.25;;;3.41;100.00
55576;BME280;41437;45.478;9.116;2023-02-14T00:34:23;101744.50;;;3.43;100.00
55576;BME280;41437;45.478;9.116;2023-02-14T00:37:25;101738.56;;;3.48;99.33
55576;BME280;41437;45.478;9.116;2023-02-14T00:40:26;101737.03;;;3.45;99.76
55576;BME280;41437;45.478;9.116;2023-02-14T00:43:28;101731.91;;;3.42;100.00
55576;BME280;41437;45.478;9.116;2023-02-14T00:46:30;101710.06;;;3.26;100.00
55576;BME280;41437;45.478;9.116;2023-02-14T00:49:33;101724.41;;;3.28;100.00
55576;BME280;41437;45.478;9.116;2023-02-14T00:52:36;101720.63;;;3.21;100.00
55576;BME280;41437;45.478;9.116;2023-02-14T00:55:38;101731.34;;;3.14;100.00
55576;BME280;41437;45.478;9.116;2023-02-14T00:58:40;101730.28;;;3.07;100.00
55576;BME280;41437;45.478;9.116;2023-02-14T01:01:42;101730.13;;;3.09;100.00
55576;BME280;41437;45.478;9.116;2023-02-14T01:04:45;101738.31;;;3.17;100.00
55576;BME280;41437;45.478;9.116;2023-02-14T01:07:46;101732.34;;;3.13;100.00
55576;BME280;41437;45.478;9.116;2023-02-14T01:10:48;101731.38;;;3.22;100.00
55576;BME280;41437;45.478;9.116;2023-02-14T01:13:50;101724.94;;;3.32;100.00
55576;BME280;41437;45.478;9.116;2023-02-14T01:16:52;101729.88;;;3.36;100.00
55576;BME280;41437;45.478;9.116;2023-02-14T01:19:55;101727.16;;;3.36;99.56
55576;BME280;41437;45.478;9.116;2023-02-14T01:22:57;101721.63;;;3.12;98.99
55576;BME280;41437;45.478;9.116;2023-02-14T01:26:03;101723.50;;;2.69;100.00
55576;BME280;41437;45.478;9.116;2023-02-14T01:29:04;101713.47;;;2.61;100.00
55576;BME280;41437;45.478;9.116;2023-02-14T01:32:06;101705.28;;;2.61;100.00
55576;BME280;41437;45.478;9.116;2023-02-14T01:35:09;101702.72;;;2.60;100.00
55576;BME280;41437;45.478;9.116;2023-02-14T01:38:11;101703.53;;;2.52;100.00
55576;BME280;41437;45.478;9.116;2023-02-14T01:41:13;101706.16;;;2.62;100.00
55576;BME280;41437;45.478;9.116;2023-02-14T01:47:52;101700.66;;;2.54;100.00
55576;BME280;41437;45.478;9.116;2023-02-14T01:50:56;101691.84;;;2.60;100.00
55576;BME280;41437;45.478;9.116;2023-02-14T01:53:59;101694.28;;;2.71;100.00
55576;BME280;41437;45.478;9.116;2023-02-14T01:57:04;101690.38;;;2.82;100.00
55576;BME280;41437;45.478;9.116;2023-02-14T02:00:08;101697.72;;;2.81;100.00
55576;BME280;41437;45.478;9.116;2023-02-14T02:03:31;101692.63;;;2.86;100.00
55576;BME280;41437;45.478;9.116;2023-02-14T02:06:38;101694.13;;;2.81;100.00
55576;BME280;41437;45.478;9.116;2023-02-14T02:09:43;101690.53;;;2.72;100.00
55576;BME280;41437;45.478;9.116;2023-02-14T02:12:47;101689.38;;;2.74;100.00
55576;BME280;41437;45.478;9.116;2023-02-14T02:15:58;101693.38;;;2.62;100.00
55576;BME280;41437;45.478;9.116;2023-02-14T02:19:28;101684.53;;;2.60;100.00
55576;BME280;41437;45.478;9.116;2023-02-14T02:27:20;101683.81;;;2.50;100.00
55576;BME280;41437;45.478;9.116;2023-02-14T02:30:43;101677.03;;;2.54;100.00
55576;BME280;41437;45.478;9.116;2023-02-14T02:37:37;101668.53;;;2.65;100.00
55576;BME280;41437;45.478;9.116;2023-02-14T02:40:47;101667.03;;;2.63;100.00
55576;BME280;41437;45.478;9.116;2023-02-14T02:44:02;101661.81;;;2.43;100.00
55576;BME280;41437;45.478;9.116;2023-02-14T02:47:17;101671.00;;;2.42;100.00
55576;BME280;41437;45.478;9.116;2023-02-14T02:50:23;101652.94;;;2.33;100.00
55576;BME280;41437;45.478;9.116;2023-02-14T02:53:49;101656.03;;;2.38;100.00
55576;BME280;41437;45.478;9.116;2023-02-14T02:56:56;101644.28;;;2.38;100.00
55576;BME280;41437;45.478;9.116;2023-02-14T03:00:02;101642.28;;;2.48;100.00
55576;BME280;41437;45.478;9.116;2023-02-14T03:03:04;101641.63;;;2.46;100.00
55576;BME280;41437;45.478;9.116;2023-02-14T03:06:23;101631.22;;;2.41;100.00
55576;BME280;41437;45.478;9.116;2023-02-14T03:09:51;101639.44;;;2.49;100.00
55576;BME280;41437;45.478;9.116;2023-02-14T03:13:35;101638.72;;;2.47;100.00
55576;BME280;41437;45.478;9.116;2023-02-14T03:16:58;101646.84;;;2.39;100.00
55576;BME280;41437;45.478;9.116;2023-02-14T03:20:11;101638.00;;;2.37;100.00
55576;BME280;41437;45.478;9.116;2023-02-14T03:23:19;101629.50;;;2.32;100.00
55576;BME280;41437;45.478;9.116;2023-02-14T03:26:28;101623.34;;;2.30;100.00
55576;BME280;41437;45.478;9.116;2023-02-14T03:29:42;101632.88;;;2.34;100.00
55576;BME280;41437;45.478;9.116;2023-02-14T03:32:49;101627.13;;;2.37;100.00
55576;BME280;41437;45.478;9.116;2023-02-14T03:35:56;101624.22;;;2.39;100.00
55576;BME280;41437;45.478;9.116;2023-02-14T03:39:06;101617.41;;;2.35;100.00
55576;BME280;41437;45.478;9.116;2023-02-14T03:42:18;101618.78;;;2.39;100.00
55576;BME280;41437;45.478;9.116;2023-02-14T03:45:26;101612.34;;;2.40;100.00
55576;BME280;41437;45.478;9.116;2023-02-14T03:48:31;101612.19;;;2.41;100.00
55576;BME280;41437;45.478;9.116;2023-02-14T03:51:35;101615.53;;;2.27;100.00
55576;BME280;41437;45.478;9.116;2023-02-14T03:54:38;101607.47;;;2.09;100.00
55576;BME280;41437;45.478;9.116;2023-02-14T03:57:45;101615.66;;;1.91;100.00
55576;BME280;41437;45.478;9.116;2023-02-14T04:00:51;101607.50;;;1.83;100.00
55576;BME280;41437;45.478;9.116;2023-02-14T04:03:58;101608.00;;;1.61;100.00
55576;BME280;41437;45.478;9.116;2023-02-14T04:07:07;101604.38;;;1.52;100.00
55576;BME280;41437;45.478;9.116;2023-02-14T04:10:09;101607.28;;;1.33;100.00
55576;BME280;41437;45.478;9.116;2023-02-14T04:13:12;101609.63;;;1.28;100.00
55576;BME280;41437;45.478;9.116;2023-02-14T04:16:14;101607.22;;;1.07;100.00
55576;BME280;41437;45.478;9.116;2023-02-14T04:19:16;101603.13;;;1.03;100.00
55576;BME280;41437;45.478;9.116;2023-02-14T04:22:22;101583.88;;;1.14;100.00
55576;BME280;41437;45.478;9.116;2023-02-14T04:25:24;101585.94;;;1.38;100.00
55576;BME280;41437;45.478;9.116;2023-02-14T04:28:27;101590.28;;;1.48;100.00
55576;BME280;41437;45.478;9.116;2023-02-14T04:31:29;101584.78;;;1.40;100.00
55576;BME280;41437;45.478;9.116;2023-02-14T04:34:30;101583.38;;;1.36;100.00
55576;BME280;41437;45.478;9.116;2023-02-14T04:37:32;101586.16;;;1.44;100.00
55576;BME280;41437;45.478;9.116;2023-02-14T04:40:33;101579.44;;;1.57;100.00
55576;BME280;41437;45.478;9.116;2023-02-14T04:43:36;101578.53;;;1.74;100.00
55576;BME280;41437;45.478;9.116;2023-02-14T04:46:38;101575.50;;;1.77;100.00
55576;BME280;41437;45.478;9.116;2023-02-14T04:49:40;101571.88;;;1.68;100.00
55576;BME280;41437;45.478;9.116;2023-02-14T04:52:41;101577.38;;;1.50;100.00
55576;BME280;41437;45.478;9.116;2023-02-14T04:55:43;101571.13;;;1.32;100.00
55576;BME280;41437;45.478;9.116;2023-02-14T04:58:46;101563.09;;;1.22;100.00
55576;BME280;41437;45.478;9.116;2023-02-14T05:01:47;101562.16;;;1.14;100.00
55576;BME280;41437;45.478;9.116;2023-02-14T05:04:49;101570.69;;;1.19;100.00
55576;BME280;41437;45.478;9.116;2023-02-14T05:07:50;101569.19;;;1.24;100.00
55576;BME280;41437;45.478;9.116;2023-02-14T05:10:53;101566.59;;;1.15;100.00
55576;BME280;41437;45.478;9.116;2023-02-14T05:13:56;101563.66;;;1.34;100.00
55576;BME280;41437;45.478;9.116;2023-02-14T05:16:58;101569.22;;;1.50;100.00
55576;BME280;41437;45.478;9.116;2023-02-14T05:19:59;101575.38;;;1.61;100.00
55576;BME280;41437;45.478;9.116;2023-02-14T05:23:01;101563.25;;;1.73;100.00
55576;BME280;41437;45.478;9.116;2023-02-14T05:26:04;101581.28;;;1.82;100.00
55576;BME280;41437;45.478;9.116;2023-02-14T05:29:07;101584.06;;;1.90;100.00
55576;BME280;41437;45.478;9.116;2023-02-14T05:32:09;101580.63;;;1.80;100.00
55576;BME280;41437;45.478;9.116;2023-02-14T05:35:11;101587.50;;;1.40;100.00
55576;BME280;41437;45.478;9.116;2023-02-14T05:38:13;101590.06;;;1.24;100.00
55576;BME280;41437;45.478;9.116;2023-02-14T05:41:14;101595.25;;;1.35;100.00
55576;BME280;41437;45.478;9.116;2023-02-14T05:44:18;101595.16;;;1.45;100.00
55576;BME280;41437;45.478;9.116;2023-02-14T05:47:19;101588.53;;;1.47;100.00
55576;BME280;41437;45.478;9.116;2023-02-14T05:50:21;101596.38;;;1.50;100.00
55576;BME280;41437;45.478;9.116;2023-02-14T05:53:22;101592.28;;;1.46;100.00
55576;BME280;41437;45.478;9.116;2023-02-14T05:56:24;101596.00;;;1.45;100.00
55576;BME280;41437;45.478;9.116;2023-02-14T05:59:27;101592.75;;;1.42;100.00
55576;BME280;41437;45.478;9.116;2023-02-14T06:02:29;101602.13;;;1.47;100.00
55576;BME280;41437;45.478;9.116;2023-02-14T06:05:31;101594.31;;;1.44;100.00
55576;BME280;41437;45.478;9.116;2023-02-14T06:08:32;101593.47;;;1.44;100.00
55576;BME280;41437;45.478;9.116;2023-02-14T06:11:34;101597.03;;;1.44;100.00
55576;BME280;41437;45.478;9.116;2023-02-14T06:14:38;101601.16;;;1.57;100.00
55576;BME280;41437;45.478;9.116;2023-02-14T06:17:40;101604.28;;;1.62;100.00
55576;BME280;41437;45.478;9.116;2023-02-14T06:20:42;101614.38;;;1.51;100.00
55576;BME280;41437;45.478;9.116;2023-02-14T06:23:44;101626.06;;;1.26;100.00
55576;BME280;41437;45.478;9.116;2023-02-14T06:26:46;101621.44;;;1.18;100.00
55576;BME280;41437;45.478;9.116;2023-02-14T06:29:49;101628.25;;;1.05;100.00
55576;BME280;41437;45.478;9.116;2023-02-14T06:32:51;101619.19;;;0.96;100.00
55576;BME280;41437;45.478;9.116;2023-02-14T06:35:53;101617.78;;;0.92;100.00
55576;BME280;41437;45.478;9.116;2023-02-14T06:38:55;101640.56;;;0.99;100.00
55576;BME280;41437;45.478;9.116;2023-02-14T06:41:56;101638.50;;;1.11;100.00
55576;BME280;41437;45.478;9.116;2023-02-14T06:45:00;101644.53;;;1.22;100.00
55576;BME280;41437;45.478;9.116;2023-02-14T06:48:03;101644.06;;;1.27;100.00
55576;BME280;41437;45.478;9.116;2023-02-14T06:51:06;101641.66;;;1.24;100.00
55576;BME280;41437;45.478;9.116;2023-02-14T06:54:08;101649.72;;;1.34;100.00
55576;BME280;41437;45.478;9.116;2023-02-14T06:57:10;101651.50;;;1.43;100.00
55576;BME280;41437;45.478;9.116;2023-02-14T07:00:16;101660.25;;;1.55;100.00
55576;BME280;41437;45.478;9.116;2023-02-14T07:03:20;101663.34;;;1.60;100.00
55576;BME280;41437;45.478;9.116;2023-02-14T07:06:22;101665.13;;;1.69;100.00
55576;BME280;41437;45.478;9.116;2023-02-14T07:09:24;101663.84;;;1.81;100.00
55576;BME280;41437;45.478;9.116;2023-02-14T07:12:25;101667.97;;;1.85;100.00
55576;BME280;41437;45.478;9.116;2023-02-14T07:15:29;101667.66;;;1.88;100.00
55576;BME280;41437;45.478;9.116;2023-02-14T07:18:30;101670.03;;;1.91;100.00
55576;BME280;41437;45.478;9.116;2023-02-14T07:21:32;101666.31;;;1.92;100.00
55576;BME280;41437;45.478;9.116;2023-02-14T07:24:34;101667.16;;;1.93;100.00
55576;BME280;41437;45.478;9.116;2023-02-14T07:27:36;101673.75;;;1.90;100.00
55576;BME280;41437;45.478;9.116;2023-02-14T07:30:39;101675.09;;;1.86;100.00
55576;BME280;41437;45.478;9.116;2023-02-14T07:33:40;101671.38;;;1.87;100.00
55576;BME280;41437;45.478;9.116;2023-02-14T07:36:42;101671.31;;;1.79;100.00
55576;BME280;41437;45.478;9.116;2023-02-14T07:39:47;101680.25;;;1.71;100.00
55576;BME280;41437;45.478;9.116;2023-02-14T07:42:51;101680.44;;;1.70;100.00
55576;BME280;41437;45.478;9.116;2023-02-14T07:45:55;101676.91;;;1.77;100.00
55576;BME280;41437;45.478;9.116;2023-02-14T07:48:56;101670.91;;;1.92;100.00
55576;BME280;41437;45.478;9.116;2023-02-14T07:51:58;101663.19;;;2.13;100.00
55576;BME280;41437;45.478;9.116;2023-02-14T07:55:00;101675.44;;;2.43;100.00
55576;BME280;41437;45.478;9.116;2023-02-14T07:58:01;101679.44;;;2.57;99.50
55576;BME280;41437;45.478;9.116;2023-02-14T08:01:05;101680.81;;;2.69;98.34
55576;BME280;41437;45.478;9.116;2023-02-14T08:04:07;101690.06;;;2.85;97.96
55576;BME280;41437;45.478;9.116;2023-02-14T08:07:08;101684.75;;;2.75;97.14
55576;BME280;41437;45.478;9.116;2023-02-14T08:10:11;101688.38;;;2.84;97.99
55576;BME280;41437;45.478;9.116;2023-02-14T08:13:12;101682.59;;;2.95;97.89
55576;BME280;41437;45.478;9.116;2023-02-14T08:16:15;101677.69;;;3.07;99.64
55576;BME280;41437;45.478;9.116;2023-02-14T08:19:17;101678.91;;;3.12;100.00
55576;BME280;41437;45.478;9.116;2023-02-14T08:22:18;101676.34;;;3.11;99.87
55576;BME280;41437;45.478;9.116;2023-02-14T08:25:20;101681.81;;;3.19;99.59
55576;BME280;41437;45.478;9.116;2023-02-14T08:28:22;101685.06;;;3.31;97.91
55576;BME280;41437;45.478;9.116;2023-02-14T08:31:28;101674.84;;;3.33;99.34
55576;BME280;41437;45.478;9.116;2023-02-14T08:34:30;101677.09;;;3.45;98.34
55576;BME280;41437;45.478;9.116;2023-02-14T08:37:33;101684.91;;;3.73;97.89
55576;BME280;41437;45.478;9.116;2023-02-14T08:40:35;101683.16;;;4.04;97.86
55576;BME280;41437;45.478;9.116;2023-02-14T08:43:36;101681.94;;;4.32;95.21
55576;BME280;41437;45.478;9.116;2023-02-14T08:46:39;101678.78;;;4.51;92.45
55576;BME280;41437;45.478;9.116;2023-02-14T08:49:41;101672.97;;;4.62;91.73
55576;BME280;41437;45.478;9.116;2023-02-14T08:52:43;101666.41;;;4.79;89.33
55576;BME280;41437;45.478;9.116;2023-02-14T08:55:45;101663.41;;;4.97;89.90
55576;BME280;41437;45.478;9.116;2023-02-14T08:58:46;101664.47;;;4.88;90.28
55576;BME280;41437;45.478;9.116;2023-02-14T09:01:54;101674.63;;;5.02;90.06
55576;BME280;41437;45.478;9.116;2023-02-14T09:04:55;101664.88;;;5.31;90.14
55576;BME280;41437;45.478;9.116;2023-02-14T09:07:57;101674.59;;;5.57;88.39
55576;BME280;41437;45.478;9.116;2023-02-14T09:11:06;101668.25;;;5.79;87.33
55576;BME280;41437;45.478;9.116;2023-02-14T09:14:07;101679.75;;;5.97;85.22
55576;BME280;41437;45.478;9.116;2023-02-14T09:17:11;101666.56;;;6.01;85.35
55576;BME280;41437;45.478;9.116;2023-02-14T09:20:15;101676.28;;;6.18;84.81
55576;BME280;41437;45.478;9.116;2023-02-14T09:23:17;101674.47;;;6.25;84.16
55576;BME280;41437;45.478;9.116;2023-02-14T09:26:19;101677.31;;;6.47;83.07
55576;BME280;41437;45.478;9.116;2023-02-14T09:29:21;101674.88;;;6.67;83.56
55576;BME280;41437;45.478;9.116;2023-02-14T09:32:24;101670.16;;;6.75;81.79
55576;BME280;41437;45.478;9.116;2023-02-14T09:35:26;101677.47;;;6.90;81.43
55576;BME280;41437;45.478;9.116;2023-02-14T09:38:27;101674.31;;;7.08;80.31
55576;BME280;41437;45.478;9.116;2023-02-14T09:42:00;101664.31;;;7.36;78.96
55576;BME280;41437;45.478;9.116;2023-02-14T09:45:07;101667.63;;;7.53;79.00
55576;BME280;41437;45.478;9.116;2023-02-14T09:48:15;101668.19;;;7.91;75.89
55576;BME280;41437;45.478;9.116;2023-02-14T09:51:26;101667.13;;;9.71;84.39
55576;BME280;41437;45.478;9.116;2023-02-14T09:54:33;101672.81;;;10.22;66.12
55576;BME280;41437;45.478;9.116;2023-02-14T09:57:37;101672.31;;;9.26;68.96
55576;BME280;41437;45.478;9.116;2023-02-14T10:00:45;101666.16;;;8.35;70.18
55576;BME280;41437;45.478;9.116;2023-02-14T10:04:19;101653.97;;;8.37;70.66
55576;BME280;41437;45.478;9.116;2023-02-14T10:07:28;101651.94;;;8.52;72.04
55576;BME280;41437;45.478;9.116;2023-02-14T10:10:37;101655.09;;;8.49;71.34
55576;BME280;41437;45.478;9.116;2023-02-14T10:13:43;101646.78;;;8.77;73.00
55576;BME280;41437;45.478;9.116;2023-02-14T10:16:48;101656.81;;;8.98;70.74
55576;BME280;41437;45.478;9.116;2023-02-14T10:19:55;101642.75;;;10.41;79.39
55576;BME280;41437;45.478;9.116;2023-02-14T10:23:03;101639.38;;;10.19;74.96
55576;BME280;41437;45.478;9.116;2023-02-14T10:26:08;101647.19;;;9.55;65.22
55576;BME280;41437;45.478;9.116;2023-02-14T10:29:13;101642.53;;;9.49;70.63
55576;BME280;41437;45.478;9.116;2023-02-14T10:32:19;101640.44;;;9.71;67.72
55576;BME280;41437;45.478;9.116;2023-02-14T10:35:30;101641.91;;;9.74;67.79
55576;BME280;41437;45.478;9.116;2023-02-14T10:38:40;101620.34;;;9.84;71.47
55576;BME280;41437;45.478;9.116;2023-02-14T10:41:50;101630.59;;;11.38;64.93
55576;BME280;41437;45.478;9.116;2023-02-14T10:45:03;101623.81;;;12.41;60.94
55576;BME280;41437;45.478;9.116;2023-02-14T10:48:13;101634.44;;;12.92;57.52
55576;BME280;41437;45.478;9.116;2023-02-14T10:51:24;101635.88;;;13.43;53.77
55576;BME280;41437;45.478;9.116;2023-02-14T10:54:35;101626.97;;;13.41;52.08
55576;BME280;41437;45.478;9.116;2023-02-14T10:57:41;101618.91;;;12.18;54.95
55576;BME280;41437;45.478;9.116;2023-02-14T11:00:53;101606.84;;;11.37;57.97
55576;BME280;41437;45.478;9.116;2023-02-14T11:03:58;101611.03;;;11.15;58.90
55576;BME280;41437;45.478;9.116;2023-02-14T11:07:11;101600.06;;;11.01;60.44
55576;BME280;41437;45.478;9.116;2023-02-14T11:10:13;101594.00;;;10.86;61.01
55576;BME280;41437;45.478;9.116;2023-02-14T11:13:29;101597.78;;;10.92;60.11
55576;BME280;41437;45.478;9.116;2023-02-14T11:16:33;101586.31;;;10.95;60.74
55576;BME280;41437;45.478;9.116;2023-02-14T11:19:35;101576.84;;;10.84;60.24
55576;BME280;41437;45.478;9.116;2023-02-14T11:22:39;101568.91;;;10.94;60.41
55576;BME280;41437;45.478;9.116;2023-02-14T11:25:41;101568.66;;;11.02;58.64
55576;BME280;41437;45.478;9.116;2023-02-14T11:28:53;101563.66;;;11.18;60.00
55576;BME280;41437;45.478;9.116;2023-02-14T11:31:55;101562.78;;;11.24;58.54
55576;BME280;41437;45.478;9.116;2023-02-14T11:34:59;101555.09;;;11.32;57.28
55576;BME280;41437;45.478;9.116;2023-02-14T11:38:04;101550.75;;;11.43;57.09
55576;BME280;41437;45.478;9.116;2023-02-14T11:41:09;101546.13;;;11.37;56.95
55576;BME280;41437;45.478;9.116;2023-02-14T11:44:15;101543.66;;;11.54;56.38
55576;BME280;41437;45.478;9.116;2023-02-14T11:47:25;101542.69;;;11.67;55.89
55576;BME280;41437;45.478;9.116;2023-02-14T11:50:27;101532.56;;;11.79;55.61
55576;BME280;41437;45.478;9.116;2023-02-14T11:53:38;101516.00;;;11.79;56.89
55576;BME280;41437;45.478;9.116;2023-02-14T11:56:44;101527.41;;;11.89;55.99
55576;BME280;41437;45.478;9.116;2023-02-14T11:59:50;101519.59;;;11.86;54.40
55576;BME280;41437;45.478;9.116;2023-02-14T12:02:54;101513.38;;;11.66;52.88
55576;BME280;41437;45.478;9.116;2023-02-14T12:05:56;101514.75;;;11.75;54.52
55576;BME280;41437;45.478;9.116;2023-02-14T12:09:11;101508.28;;;11.88;54.57
55576;BME280;41437;45.478;9.116;2023-02-14T12:12:18;101498.09;;;11.88;53.23
55576;BME280;41437;45.478;9.116;2023-02-14T12:15:27;101494.38;;;11.76;53.12
55576;BME280;41437;45.478;9.116;2023-02-14T12:18:50;101483.91;;;12.03;53.08
55576;BME280;41437;45.478;9.116;2023-02-14T12:21:55;101480.75;;;12.18;52.82
55576;BME280;41437;45.478;9.116;2023-02-14T12:25:04;101470.91;;;12.22;52.79
55576;BME280;41437;45.478;9.116;2023-02-14T12:28:11;101470.59;;;12.30;53.00
55576;BME280;41437;45.478;9.116;2023-02-14T12:31:16;101467.47;;;12.26;53.71
55576;BME280;41437;45.478;9.116;2023-02-14T12:34:19;101457.25;;;12.27;52.16
55576;BME280;41437;45.478;9.116;2023-02-14T12:37:32;101448.19;;;12.38;53.08
55576;BME280;41437;45.478;9.116;2023-02-14T12:40:46;101449.59;;;12.29;53.20
55576;BME280;41437;45.478;9.116;2023-02-14T12:43:51;101437.13;;;12.38;52.68
55576;BME280;41437;45.478;9.116;2023-02-14T12:47:02;101427.09;;;12.55;51.58
55576;BME280;41437;45.478;9.116;2023-02-14T12:50:25;101422.19;;;12.69;52.41
55576;BME280;41437;45.478;9.116;2023-02-14T12:53:51;101411.25;;;12.63;50.49
55576;BME280;41437;45.478;9.116;2023-02-14T12:57:03;101396.94;;;12.54;50.95
55576;BME280;41437;45.478;9.116;2023-02-14T13:00:19;101394.03;;;12.61;51.14
55576;BME280;41437;45.478;9.116;2023-02-14T13:03:59;101394.53;;;12.69;50.65
55576;BME280;41437;45.478;9.116;2023-02-14T13:07:10;101387.00;;;12.76;50.77
55576;BME280;41437;45.478;9.116;2023-02-14T13:10:35;101381.22;;;13.01;49.72
55576;BME280;41437;45.478;9.116;2023-02-14T13:13:49;101373.28;;;13.05;49.47
55576;BME280;41437;45.478;9.116;2023-02-14T13:16:56;101368.38;;;13.07;48.56
55576;BME280;41437;45.478;9.116;2023-02-14T13:20:19;101361.41;;;13.16;48.81
55576;BME280;41437;45.478;9.116;2023-02-14T13:23:27;101359.84;;;13.20;49.63
55576;BME280;41437;45.478;9.116;2023-02-14T13:26:33;101353.22;;;13.21;48.73
55576;BME280;41437;45.478;9.116;2023-02-14T13:29:42;101350.44;;;13.21;48.55
55576;BME280;41437;45.478;9.116;2023-02-14T13:32:46;101347.09;;;13.31;48.79
55576;BME280;41437;45.478;9.116;2023-02-14T13:35:50;101340.00;;;13.23;48.44
55576;BME280;41437;45.478;9.116;2023-02-14T13:38:55;101331.47;;;13.25;48.21
55576;BME280;41437;45.478;9.116;2023-02-14T13:41:58;101331.44;;;13.13;47.68
55576;BME280;41437;45.478;9.116;2023-02-14T13:45:01;101338.66;;;13.02;48.24
55576;BME280;41437;45.478;9.116;2023-02-14T13:48:04;101328.44;;;13.03;48.35
55576;BME280;41437;45.478;9.116;2023-02-14T13:51:07;101328.31;;;13.21;47.81
55576;BME280;41437;45.478;9.116;2023-02-14T13:54:20;101328.41;;;13.15;47.19
55576;BME280;41437;45.478;9.116;2023-02-14T13:57:30;101327.56;;;13.14;47.27
55576;BME280;41437;45.478;9.116;2023-02-14T14:00:43;101309.66;;;13.17;48.26
55576;BME280;41437;45.478;9.116;2023-02-14T14:03:54;101302.31;;;13.34;47.95
55576;BME280;41437;45.478;9.116;2023-02-14T14:07:15;101308.09;;;13.21;45.88
55576;BME280;41437;45.478;9.116;2023-02-14T14:10:42;101297.16;;;13.38;47.08
55576;BME280;41437;45.478;9.116;2023-02-14T14:13:55;101298.34;;;13.42;47.07
55576;BME280;41437;45.478;9.116;2023-02-14T14:16:59;101299.75;;;13.56;47.50
55576;BME280;41437;45.478;9.116;2023-02-14T14:20:03;101300.09;;;13.60;47.75
55576;BME280;41437;45.478;9.116;2023-02-14T14:23:30;101294.00;;;13.46;46.76
55576;BME280;41437;45.478;9.116;2023-02-14T14:26:35;101285.78;;;13.51;48.04
55576;BME280;41437;45.478;9.116;2023-02-14T14:29:39;101289.16;;;13.53;47.91
55576;BME280;41437;45.478;9.116;2023-02-14T14:32:46;101278.81;;;13.48;47.75
55576;BME280;41437;45.478;9.116;2023-02-14T14:35:51;101279.78;;;13.42;48.53
55576;BME280;41437;45.478;9.116;2023-02-14T14:38:55;101273.72;;;13.57;47.34
55576;BME280;41437;45.478;9.116;2023-02-14T14:42:05;101271.91;;;13.63;47.11
55576;BME280;41437;45.478;9.116;2023-02-14T14:45:18;101261.69;;;13.63;47.01
55576;BME280;41437;45.478;9.116;2023-02-14T14:48:27;101260.84;;;13.63;46.58
55576;BME280;41437;45.478;9.116;2023-02-14T14:51:33;101255.69;;;13.54;46.49
55576;BME280;41437;45.478;9.116;2023-02-14T14:54:35;101261.22;;;13.54;46.66
55576;BME280;41437;45.478;9.116;2023-02-14T14:57:38;101259.66;;;13.58;46.67
55576;BME280;41437;45.478;9.116;2023-02-14T15:00:50;101256.13;;;13.63;46.17
55576;BME280;41437;45.478;9.116;2023-02-14T15:03:53;101253.59;;;13.62;46.22
55576;BME280;41437;45.478;9.116;2023-02-14T15:06:56;101247.16;;;13.44;46.37
55576;BME280;41437;45.478;9.116;2023-02-14T15:09:58;101255.84;;;13.36;46.39
55576;BME280;41437;45.478;9.116;2023-02-14T15:13:00;101255.38;;;13.39;47.06
55576;BME280;41437;45.478;9.116;2023-02-14T15:16:22;101241.91;;;13.31;47.18
55576;BME280;41437;45.478;9.116;2023-02-14T15:19:28;101242.16;;;13.18;47.27
55576;BME280;41437;45.478;9.116;2023-02-14T15:22:40;101244.44;;;13.09;47.22
55576;BME280;41437;45.478;9.116;2023-02-14T15:25:45;101246.25;;;13.03;47.72
55576;BME280;41437;45.478;9.116;2023-02-14T15:28:53;101250.81;;;13.09;47.76
55576;BME280;41437;45.478;9.116;2023-02-14T15:31:56;101241.22;;;13.00;48.32
55576;BME280;41437;45.478;9.116;2023-02-14T15:35:00;101244.81;;;13.01;48.13
55576;BME280;41437;45.478;9.116;2023-02-14T15:38:04;101239.06;;;13.02;47.84
55576;BME280;41437;45.478;9.116;2023-02-14T15:41:06;101239.75;;;13.09;47.92
55576;BME280;41437;45.478;9.116;2023-02-14T15:44:17;101235.44;;;13.02;48.29
55576;BME280;41437;45.478;9.116;2023-02-14T15:47:20;101241.81;;;13.02;48.22
55576;BME280;41437;45.478;9.116;2023-02-14T15:50:25;101240.03;;;12.85;48.83
55576;BME280;41437;45.478;9.116;2023-02-14T15:53:35;101229.94;;;12.67;49.34
55576;BME280;41437;45.478;9.116;2023-02-14T15:56:42;101229.69;;;12.56;48.98
55576;BME280;41437;45.478;9.116;2023-02-14T15:59:46;101227.03;;;12.62;48.24
55576;BME280;41437;45.478;9.116;2023-02-14T16:02:50;101223.81;;;12.53;48.92
55576;BME280;41437;45.478;9.116;2023-02-14T16:05:55;101233.41;;;12.39;49.80
55576;BME280;41437;45.478;9.116;2023-02-14T16:08:57;101234.16;;;12.46;49.36
55576;BME280;41437;45.478;9.116;2023-02-14T16:12:10;101231.97;;;12.36;50.68
55576;BME280;41437;45.478;9.116;2023-02-14T16:15:17;101221.88;;;12.30;50.29
55576;BME280;41437;45.478;9.116;2023-02-14T16:18:36;101228.22;;;12.19;50.77
55576;BME280;41437;45.478;9.116;2023-02-14T16:21:53;101220.13;;;12.05;50.85
55576;BME280;41437;45.478;9.116;2023-02-14T16:24:55;101231.56;;;11.97;51.55
55576;BME280;41437;45.478;9.116;2023-02-14T16:27:56;101222.81;;;11.82;51.73